Brownsville South Padre Island International Airport
KBRO : now visible

Airfield :











YOU CAN JOIN US ON...

 
LOGIN :

Register | Disclaimer

   EN    FR    IT 

 









Legend :    VFR   Marginal VFR   IFR   Intensive IFR   Very Intensive IFR
Visi :
Ceiling :
>= 8 km
>= 3000ft
5 to 8 km
1000 to 3000 ft
1500m to 5 km
500 to 1000 ft
800 to 1500m
200 to 500 ft
< 800m
< 200 ft
Symbols :   Thunderstorms  Fog  Heavy snow  Heavy precipitations  Wind > 20 kt






- Airport Elevation : 22 ft
- IATA code : BRO


KBRO - Brownsville South Padre Island International

CURRENT METAR :
  • 280853Z AUTO 30015G25KT 10SM OVC007 10/09 A2991 RMK AO2 RAB00E48 SLP128 P0001 60001 T01000089 53000

EXPIRED METARs :
  • 280807Z AUTO 31015G21KT 9SM -RA BKN007 OVC011 11/09 A2991 RMK AO2 RAB00 P0000 T01060089
  • 280753Z AUTO 32016G30KT 10SM OVC008 11/09 A2991 RMK AO2 PK WND 31030/0749 CIG 006V012 SLP128 T01060089
  • 280653Z AUTO 31014G20KT 10SM OVC009 12/09 A2991 RMK AO2 SLP127 T01170089

TAF KBRO
Valid from the 28 at 06:00 until the 29 at 06:00 UTC


280524Z 2806/2906 32012KT P6SM OVC012
TEMPO 2808/2812 BKN008
FM281400 31015G22KT P6SM OVC025
FM281700 32018G26KT P6SM FEW025 BKN250
FM282300 29009KT P6SM SKC
KZHU FIR / North America



MET'MAP, your aeronautical weather chart ! - Copyright ORBIFLY December 2007 - Disclaimer

ORBIFLY MET'MAP TEAM :

Programming & Development : Alexandra Zaïnal
Concept & original design : Baudouin d'Aumeries
Assistance for programming : Marc-Olivier Méhu
Technical & hardware support : Manuel Goepfert

Contact : metmap@orbifly.com




SOURCES & CREDITS :

   NOAA       Earth
Advisory